»·PEaware :: UAL350 KSFO-KPHX

UAL350 :: KSFO-KPHX

FLIGHT INFORMATION

Flight Status: Arrived
Operator:
United Airlines
More flights by this operator :: More flights under this callsign
Pilot: Jeff H. (11722)
Aircraft: BOEING 737-300
(B733)
More flights by this aircraft type
Origin: KSFO San Francisco Intl
United States
Destination: KPHX Phoenix Sky Harbor Intl
United States
More flights between these airports :: More routes between these airports
Route: +SSTIK3 LOSHN BOILE BLH HYDRR1
File this flight plan on PilotEdge
Remarks:
Altitude:
(Current/Filed)
350ft
Speed:
(Current/Filed)
0kts
Departed: 16-Apr-18 02:01 PM
Arrived: 16-Apr-18 03:37 PM
Distance/Time
Traveled:
564nm/1:36
Distance/Time
To Go:
Arrived

Flight Plot

Page will automatically refresh every two minutes.


Map Options




Map Legend


Flown Route
Filed Route
Departure Airport
Arrival Airport
Navaid (VOR, NDB)
Fix

Horizontal Profiles

Position Reports

Time Latitude Longitude Heading Altitude Ground
Speed
16-Apr-18 13:42 37.619982 -122.388771 29 20ft 0kts
16-Apr-18 13:43 37.619982 -122.388771 29 20ft 0kts
16-Apr-18 13:44 37.619982 -122.388771 29 20ft 0kts
16-Apr-18 13:45 37.619982 -122.388771 29 20ft 0kts
16-Apr-18 13:46 37.619982 -122.388771 29 20ft 0kts
16-Apr-18 13:47 37.619982 -122.388771 29 20ft 0kts
16-Apr-18 13:48 37.619982 -122.388771 29 20ft 0kts
16-Apr-18 13:49 37.619982 -122.388771 29 20ft 0kts
16-Apr-18 13:50 37.619982 -122.388771 29 20ft 0kts
16-Apr-18 13:51 37.619982 -122.388771 29 20ft 0kts
16-Apr-18 13:52 37.619982 -122.388771 29 20ft 0kts
16-Apr-18 13:53 37.619982 -122.388771 29 20ft 0kts
16-Apr-18 13:54 37.619940 -122.388518 165 20ft 5kts
16-Apr-18 13:55 37.621502 -122.391435 19 20ft 15kts
16-Apr-18 13:56 37.621987 -122.387637 119 20ft 13kts
16-Apr-18 13:57 37.619760 -122.382235 118 20ft 24kts
16-Apr-18 13:58 37.614780 -122.380825 209 20ft 22kts
16-Apr-18 13:59 37.610005 -122.383879 183 20ft 16kts
16-Apr-18 14:00 37.620667 -122.374653 29 124ft 177kts
16-Apr-18 14:01 37.666699 -122.361436 357 2853ft 205kts
16-Apr-18 14:02 37.700949 -122.399880 249 4844ft 212kts
16-Apr-18 14:03 37.644350 -122.430328 196 6913ft 269kts
16-Apr-18 14:04 37.570941 -122.451563 195 8883ft 285kts
16-Apr-18 14:05 37.496499 -122.467229 166 10653ft 309kts
16-Apr-18 14:06 37.437489 -122.393315 129 12145ft 361kts
16-Apr-18 14:07 37.379719 -122.303676 129 13589ft 376kts
16-Apr-18 14:08 37.321052 -122.212788 129 15005ft 387kts
16-Apr-18 14:09 37.260979 -122.119974 130 16414ft 397kts
16-Apr-18 14:10 37.197042 -122.021473 130 17876ft 407kts
16-Apr-18 14:11 37.132633 -121.922541 130 19313ft 417kts
16-Apr-18 14:12 37.061033 -121.811768 132 20843ft 432kts
16-Apr-18 14:13 36.987660 -121.699678 134 22372ft 446kts
16-Apr-18 14:14 36.910299 -121.582029 135 23940ft 456kts
16-Apr-18 14:15 36.829867 -121.460348 135 25539ft 461kts
16-Apr-18 14:16 36.748784 -121.338133 136 27127ft 464kts
16-Apr-18 14:17 36.670135 -121.220025 137 28569ft 465kts
16-Apr-18 14:18 36.589499 -121.099356 139 29949ft 465kts
16-Apr-18 14:19 36.508859 -120.979113 141 31338ft 460kts
16-Apr-18 14:20 36.432747 -120.865824 142 32589ft 455kts
16-Apr-18 14:21 36.359941 -120.756347 144 33856ft 444kts
16-Apr-18 14:22 36.287136 -120.647793 144 35026ft 435kts
16-Apr-18 14:23 36.211974 -120.536266 144 35047ft 451kts
16-Apr-18 14:24 36.134276 -120.421109 143 35052ft 460kts
16-Apr-18 14:25 36.072173 -120.289019 120 35032ft 503kts
16-Apr-18 14:26 36.015365 -120.146721 130 35017ft 490kts
16-Apr-18 14:27 35.955913 -120.003727 129 35027ft 491kts
16-Apr-18 14:28 35.896700 -119.861105 129 35020ft 492kts
16-Apr-18 14:29 35.837448 -119.718437 130 35041ft 490kts
16-Apr-18 14:30 35.776191 -119.572791 130 35037ft 490kts
16-Apr-18 14:31 35.714610 -119.427001 130 35035ft 490kts
16-Apr-18 14:32 35.652379 -119.280312 130 35035ft 490kts
16-Apr-18 14:33 35.590952 -119.136162 130 35033ft 490kts
16-Apr-18 14:34 35.527616 -118.988163 130 35044ft 490kts
16-Apr-18 14:35 35.466082 -118.843978 130 35040ft 483kts
16-Apr-18 14:36 35.404215 -118.700540 131 35030ft 478kts
16-Apr-18 14:37 35.342501 -118.558246 130 35007ft 477kts
16-Apr-18 14:38 35.280344 -118.415477 130 35004ft 477kts
16-Apr-18 14:39 35.218078 -118.273069 131 35001ft 477kts
16-Apr-18 14:40 35.155743 -118.131099 131 34980ft 477kts
16-Apr-18 14:41 35.093602 -117.990164 130 34963ft 478kts
16-Apr-18 14:42 35.031015 -117.847911 130 34940ft 478kts
16-Apr-18 14:43 34.969859 -117.709622 130 34932ft 476kts
16-Apr-18 14:44 34.908349 -117.571848 130 34926ft 477kts
16-Apr-18 14:45 34.848239 -117.437705 129 34928ft 478kts
16-Apr-18 14:46 34.787588 -117.302893 129 34921ft 479kts
16-Apr-18 14:47 34.723707 -117.161470 129 34925ft 479kts
16-Apr-18 14:48 34.659714 -117.020382 129 34923ft 479kts
16-Apr-18 14:49 34.595845 -116.879993 130 34876ft 479kts
16-Apr-18 14:50 34.533442 -116.742091 130 34891ft 475kts
16-Apr-18 14:51 34.470660 -116.605368 130 34889ft 473kts
16-Apr-18 14:52 34.407735 -116.469293 130 34904ft 474kts
16-Apr-18 14:53 34.344866 -116.333456 130 34925ft 475kts
16-Apr-18 14:54 34.281052 -116.196063 130 34926ft 476kts
16-Apr-18 14:55 34.216637 -116.057938 130 34928ft 477kts
16-Apr-18 14:56 34.151993 -115.919828 130 34939ft 476kts
16-Apr-18 14:57 34.087508 -115.781142 131 34935ft 474kts
16-Apr-18 14:58 34.022460 -115.643267 131 34909ft 475kts
16-Apr-18 14:59 33.957315 -115.505732 131 34876ft 475kts
16-Apr-18 15:00 33.893722 -115.371716 131 33257ft 446kts
16-Apr-18 15:01 33.834712 -115.248144 131 30867ft 417kts
16-Apr-18 15:02 33.777721 -115.129353 131 28484ft 412kts
16-Apr-18 15:03 33.720786 -115.010812 130 26113ft 411kts
16-Apr-18 15:04 33.664371 -114.893677 129 23746ft 401kts
16-Apr-18 15:05 33.609717 -114.779538 129 22901ft 418kts
16-Apr-18 15:06 33.572217 -114.637774 110 22926ft 464kts
16-Apr-18 15:07 33.543369 -114.488803 110 22939ft 464kts
16-Apr-18 15:08 33.514605 -114.342065 110 22938ft 464kts
16-Apr-18 15:09 33.485395 -114.194063 110 22939ft 464kts
16-Apr-18 15:10 33.456299 -114.048319 112 22971ft 423kts
16-Apr-18 15:11 33.428203 -113.911376 111 22937ft 423kts
16-Apr-18 15:12 33.401464 -113.776130 112 22939ft 423kts
16-Apr-18 15:13 33.374208 -113.641056 111 22375ft 419kts
16-Apr-18 15:14 33.347269 -113.508646 111 21943ft 416kts
16-Apr-18 15:15 33.322224 -113.373973 109 21955ft 418kts
16-Apr-18 15:16 33.298980 -113.239646 109 21971ft 407kts
16-Apr-18 15:17 33.280093 -113.110761 107 19690ft 386kts
16-Apr-18 15:18 33.275957 -112.986825 94 18489ft 374kts
16-Apr-18 15:19 33.279317 -112.866522 94 15991ft 369kts
16-Apr-18 15:20 33.287159 -112.751353 89 14991ft 343kts
16-Apr-18 15:21 33.297614 -112.640998 89 13391ft 335kts
16-Apr-18 15:22 33.307569 -112.534120 88 11519ft 322kts
16-Apr-18 15:23 33.316970 -112.432119 88 10807ft 318kts
16-Apr-18 15:24 33.325913 -112.333162 88 10598ft 316kts
16-Apr-18 15:25 33.334704 -112.235170 87 9385ft 285kts
16-Apr-18 15:26 33.342706 -112.146231 85 9022ft 271kts
16-Apr-18 15:27 33.347265 -112.063019 92 8613ft 278kts
16-Apr-18 15:28 33.345941 -111.976553 91 7084ft 265kts
16-Apr-18 15:29 33.345885 -111.898624 90 6802ft 259kts
16-Apr-18 15:30 33.350450 -111.817929 70 5640ft 252kts
16-Apr-18 15:31 33.398553 -111.794867 334 4864ft 206kts
16-Apr-18 15:32 33.426018 -111.841431 290 3999ft 184kts
16-Apr-18 15:33 33.428590 -111.899127 269 2951ft 169kts
16-Apr-18 15:34 33.428728 -111.947492 270 2148ft 132kts
16-Apr-18 15:35 33.428885 -111.992071 269 1361ft 132kts
16-Apr-18 15:36 33.428829 -112.015463 270 1142ft 8kts
16-Apr-18 15:37 33.430358 -112.015956 36 1142ft 10kts

Navigation Log

Ident Type
Flight plan parsing failed, navigation log unavailable